Time;durP1;ratioP1;P1;durP2;ratioP2;P2;SDS_P1;SDS_P2;PMS_P1;PMS_P2;Temp;Humidity;BMP_temperature;BMP_pressure;BME280_temperature;BME280_humidity;BME280_pressure;Samples;Min_cycle;Max_cycle;Signal;HPM_P1;HPM_P2
2023/12/07 00:01:28;;;;;;;39.63;19.60;;;3.70;99.90;;;;;;5040603;28;20064;-78
2023/12/07 00:03:54;;;;;;;43.40;20.03;;;3.70;99.90;;;;;;5042674;28;20029;-79
2023/12/07 00:06:19;;;;;;;37.20;19.50;;;3.70;99.90;;;;;;5030411;28;20455;-79
2023/12/07 00:08:45;;;;;;;38.27;20.13;;;3.80;99.90;;;;;;5034580;28;20037;-78
2023/12/07 00:11:10;;;;;;;47.50;20.20;;;3.80;99.90;;;;;;5038477;28;20033;-78
2023/12/07 00:13:36;;;;;;;37.43;19.13;;;3.80;99.90;;;;;;5047714;28;20033;-78
2023/12/07 00:16:02;;;;;;;40.90;19.90;;;3.80;99.90;;;;;;5031058;28;20065;-78
2023/12/07 00:18:27;;;;;;;41.58;20.40;;;3.80;99.90;;;;;;5027796;28;20404;-78
2023/12/07 00:20:53;;;;;;;43.60;19.77;;;3.80;99.90;;;;;;5026127;28;20382;-78
2023/12/07 00:23:18;;;;;;;39.63;20.60;;;3.80;99.90;;;;;;5037271;28;20024;-78
2023/12/07 00:25:45;;;;;;;46.30;20.60;;;3.80;99.90;;;;;;5049921;28;20557;-78
2023/12/07 00:28:11;;;;;;;37.78;20.02;;;3.80;99.90;;;;;;5052450;28;20062;-78
2023/12/07 00:30:37;;;;;;;38.97;20.17;;;3.90;99.90;;;;;;5052840;28;20021;-79
2023/12/07 00:33:02;;;;;;;39.07;19.43;;;3.90;99.90;;;;;;5051790;28;20115;-78
2023/12/07 00:35:28;;;;;;;40.23;19.73;;;3.90;99.90;;;;;;5062714;28;20024;-78
2023/12/07 00:37:56;;;;;;;39.28;19.58;;;3.90;99.90;;;;;;5069851;28;20491;-78
2023/12/07 00:40:22;;;;;;;37.28;18.85;;;3.90;99.90;;;;;;5066676;28;20040;-78
2023/12/07 00:42:47;;;;;;;42.17;19.20;;;3.90;99.90;;;;;;5044790;28;20082;-78
2023/12/07 00:45:13;;;;;;;37.67;18.90;;;3.90;99.90;;;;;;5049543;28;20040;-78
2023/12/07 00:47:39;;;;;;;39.83;18.77;;;3.90;99.90;;;;;;5031201;28;20033;-78
2023/12/07 00:50:06;;;;;;;35.22;18.90;;;3.90;99.90;;;;;;5031251;28;20056;-78
2023/12/07 00:52:32;;;;;;;30.73;16.08;;;3.90;99.90;;;;;;5042196;28;20025;-78
2023/12/07 00:54:57;;;;;;;37.13;16.75;;;3.90;99.90;;;;;;5042078;28;20036;-78
2023/12/07 00:57:23;;;;;;;43.53;18.27;;;3.90;99.90;;;;;;5041723;28;20108;-78
2023/12/07 00:59:48;;;;;;;32.57;16.67;;;3.90;99.90;;;;;;5044769;28;20555;-78
2023/12/07 01:02:14;;;;;;;32.30;17.40;;;3.90;99.90;;;;;;5034803;28;20025;-78
2023/12/07 01:04:39;;;;;;;34.07;16.70;;;3.90;99.90;;;;;;5050630;28;20017;-78
2023/12/07 01:07:05;;;;;;;43.07;17.27;;;3.90;99.90;;;;;;5065258;28;20114;-78
2023/12/07 01:09:31;;;;;;;45.57;18.00;;;3.90;99.90;;;;;;5050058;28;20373;-78
2023/12/07 01:11:58;;;;;;;28.93;16.80;;;3.90;99.90;;;;;;5050232;28;20275;-78
2023/12/07 01:14:24;;;;;;;38.92;17.80;;;3.90;99.90;;;;;;5050321;28;20017;-78
2023/12/07 01:16:49;;;;;;;32.78;16.77;;;3.90;99.90;;;;;;5050453;28;20516;-78
2023/12/07 01:19:15;;;;;;;33.93;17.13;;;4.00;99.90;;;;;;5049635;28;20037;-78
2023/12/07 01:21:41;;;;;;;32.73;17.10;;;4.00;99.90;;;;;;5040290;28;20041;-78
2023/12/07 01:24:07;;;;;;;;;;;3.90;99.90;;;;;;5048918;28;20036;-78
2023/12/07 01:26:33;;;;;;;31.63;16.20;;;3.90;99.90;;;;;;5049610;28;19919;-78
2023/12/07 01:28:58;;;;;;;37.23;16.73;;;4.00;99.90;;;;;;5065057;28;20147;-78
2023/12/07 01:31:24;;;;;;;34.97;18.13;;;4.00;99.90;;;;;;5049890;28;20025;-78
2023/12/07 01:33:50;;;;;;;35.57;16.70;;;4.00;99.90;;;;;;5050008;28;20033;-78
2023/12/07 01:36:15;;;;;;;35.20;17.27;;;4.00;99.90;;;;;;5049154;28;20021;-78
2023/12/07 01:38:41;;;;;;;38.07;18.30;;;4.00;99.90;;;;;;5050298;28;20021;-77
2023/12/07 01:41:06;;;;;;;37.27;17.37;;;3.90;99.90;;;;;;5049974;28;20559;-78
2023/12/07 01:43:32;;;;;;;41.60;18.17;;;3.90;99.90;;;;;;5049638;28;20107;-78
2023/12/07 01:45:58;;;;;;;35.63;18.43;;;3.90;99.90;;;;;;5047098;28;20039;-78
2023/12/07 01:48:26;;;;;;;;;;;3.90;99.90;;;;;;5041770;28;20035;-77
2023/12/07 01:50:53;;;;;;;29.58;16.00;;;4.00;99.90;;;;;;5049659;28;19940;-77
2023/12/07 01:53:20;;;;;;;34.25;16.67;;;4.00;99.90;;;;;;5035917;28;20087;-77
2023/12/07 01:55:47;;;;;;;39.42;17.60;;;4.00;99.90;;;;;;5029468;28;20037;-78
2023/12/07 01:58:14;;;;;;;31.98;16.23;;;4.10;99.90;;;;;;5029430;28;20053;-78
2023/12/07 02:00:40;;;;;;;34.40;16.90;;;4.10;99.90;;;;;;5029663;28;20033;-78
2023/12/07 02:03:05;;;;;;;32.63;17.25;;;4.10;99.90;;;;;;5029447;28;20029;-78
2023/12/07 02:05:32;;;;;;;37.92;17.95;;;4.10;99.90;;;;;;5028978;28;20053;-78
2023/12/07 02:07:58;;;;;;;34.53;16.70;;;4.10;99.90;;;;;;5029512;28;20099;-78
2023/12/07 02:10:24;;;;;;;37.00;17.83;;;4.00;99.90;;;;;;5029457;28;20029;-78
2023/12/07 02:12:51;;;;;;;34.05;17.38;;;4.00;99.90;;;;;;5029887;28;20205;-78
2023/12/07 02:15:17;;;;;;;;;;;4.00;99.90;;;;;;5030598;28;20587;-78
2023/12/07 02:18:13;;;;;;;31.20;15.18;;;4.10;99.90;;;;;;5029603;28;19913;-78
2023/12/07 02:20:48;;;;;;;31.90;16.05;;;4.10;99.90;;;;;;5029611;28;20025;-78
2023/12/07 02:23:17;;;;;;;39.65;15.40;;;4.10;99.90;;;;;;5042886;28;20017;-78
2023/12/07 02:25:53;;;;;;;32.38;15.77;;;4.10;99.90;;;;;;5065631;28;20036;-78
2023/12/07 02:28:19;;;;;;;36.17;17.88;;;4.10;99.90;;;;;;5069448;28;20033;-78
2023/12/07 02:30:45;;;;;;;35.90;18.10;;;4.10;99.90;;;;;;5068393;28;20044;-78
2023/12/07 02:33:11;;;;;;;46.65;19.83;;;4.10;99.90;;;;;;5048693;28;20111;-78
2023/12/07 02:35:38;;;;;;;35.30;17.55;;;4.10;99.90;;;;;;5047229;28;20148;-78
2023/12/07 02:38:06;;;;;;;36.75;18.65;;;4.10;99.90;;;;;;5041893;28;20027;-78
2023/12/07 02:40:32;;;;;;;38.78;19.08;;;4.10;99.90;;;;;;5031439;28;20033;-78
2023/12/07 02:42:59;;;;;;;45.22;20.20;;;4.10;99.90;;;;;;5042864;28;20396;-78
2023/12/07 02:45:26;;;;;;;36.03;17.92;;;4.10;99.90;;;;;;5039716;28;20033;-78
2023/12/07 02:47:52;;;;;;;42.83;19.27;;;4.10;99.90;;;;;;5027907;28;20490;-78
2023/12/07 02:50:18;;;;;;;34.13;17.70;;;4.10;99.90;;;;;;5027901;28;20030;-78
2023/12/07 02:52:43;;;;;;;45.58;19.70;;;4.00;99.90;;;;;;5028759;28;20053;-78
2023/12/07 02:55:09;;;;;;;35.08;17.73;;;4.10;99.90;;;;;;5028730;28;20029;-78
2023/12/07 02:57:35;;;;;;;30.02;16.48;;;4.00;99.90;;;;;;5032578;28;20029;-78
2023/12/07 03:00:06;;;;;;;32.50;16.33;;;4.00;99.90;;;;;;5048118;28;20127;-78
2023/12/07 03:02:35;;;;;;;31.17;16.00;;;3.90;99.90;;;;;;5048135;28;20028;-78
2023/12/07 03:05:01;;;;;;;38.13;17.08;;;3.90;99.90;;;;;;5048110;28;20020;-78
2023/12/07 03:07:27;;;;;;;33.53;15.52;;;3.90;99.90;;;;;;5047992;28;20044;-78
2023/12/07 03:09:52;;;;;;;34.60;16.30;;;3.90;99.90;;;;;;5047821;28;20028;-78
2023/12/07 03:12:18;;;;;;;31.60;15.40;;;3.80;99.90;;;;;;5047653;28;20275;-78
2023/12/07 03:14:43;;;;;;;28.60;14.63;;;3.80;99.90;;;;;;5048065;28;20074;-77
2023/12/07 03:17:09;;;;;;;36.90;15.33;;;3.70;99.90;;;;;;5047848;28;20427;-78
2023/12/07 03:19:41;;;;;;;32.40;15.57;;;3.70;99.90;;;;;;5047665;28;20053;-78
2023/12/07 03:22:07;;;;;;;29.83;15.05;;;3.70;99.90;;;;;;5047638;28;20037;-78
2023/12/07 03:24:36;;;;;;;29.52;14.20;;;3.60;99.90;;;;;;5065340;28;20028;-77
2023/12/07 03:27:02;;;;;;;29.00;14.27;;;3.60;99.90;;;;;;5044888;28;20045;-77
2023/12/07 03:29:28;;;;;;;30.75;15.68;;;3.60;99.90;;;;;;5037005;28;20825;-77
2023/12/07 03:31:53;;;;;;;34.70;14.97;;;3.60;99.90;;;;;;5048157;28;20079;-77
2023/12/07 03:34:19;;;;;;;36.73;15.93;;;3.60;99.90;;;;;;5038365;28;20026;-77
2023/12/07 03:36:48;;;;;;;29.10;13.63;;;3.60;99.90;;;;;;5028255;28;20771;-78
2023/12/07 03:39:25;;;;;;;27.55;13.93;;;3.50;99.90;;;;;;5028085;28;20099;-77
2023/12/07 03:41:51;;;;;;;27.85;13.98;;;3.50;99.90;;;;;;5046160;28;20445;-77
2023/12/07 03:44:17;;;;;;;27.90;13.95;;;3.50;99.90;;;;;;5047843;28;20115;-77
2023/12/07 03:46:43;;;;;;;29.95;14.02;;;3.40;99.90;;;;;;5048095;28;20828;-77
2023/12/07 03:49:08;;;;;;;25.63;13.18;;;3.40;99.90;;;;;;5047973;28;20029;-77
2023/12/07 03:51:36;;;;;;;30.10;13.80;;;3.40;99.90;;;;;;5047542;28;20056;-77
2023/12/07 03:54:03;;;;;;;26.48;14.20;;;3.40;99.90;;;;;;5047548;28;20436;-77
2023/12/07 03:56:30;;;;;;;32.30;15.57;;;3.40;99.90;;;;;;5047725;28;20515;-78
2023/12/07 03:58:56;;;;;;;26.65;12.40;;;3.40;99.90;;;;;;5039022;28;20125;-77
2023/12/07 04:01:23;;;;;;;;;;;3.50;99.90;;;;;;5032245;28;20535;-78
2023/12/07 04:03:49;;;;;;;24.48;12.10;;;3.50;99.90;;;;;;5047687;28;19909;-78
2023/12/07 04:06:15;;;;;;;24.20;12.25;;;3.40;99.90;;;;;;5028227;28;20116;-78
2023/12/07 04:08:40;;;;;;;25.65;14.43;;;3.40;99.90;;;;;;5027217;28;20489;-78
2023/12/07 04:11:06;;;;;;;28.10;12.93;;;3.30;99.90;;;;;;5027097;28;20513;-78
2023/12/07 04:13:31;;;;;;;24.63;12.47;;;3.30;99.90;;;;;;5027289;28;20048;-78
2023/12/07 04:15:57;;;;;;;27.17;13.70;;;3.30;99.90;;;;;;5030366;28;20514;-78
2023/12/07 04:18:23;;;;;;;24.83;12.13;;;3.30;99.90;;;;;;5036915;28;20033;-78
2023/12/07 04:20:48;;;;;;;23.67;12.07;;;3.40;99.90;;;;;;5032055;28;20028;-77
2023/12/07 04:23:14;;;;;;;26.40;12.43;;;3.50;99.90;;;;;;5054389;28;20020;-78
2023/12/07 04:25:40;;;;;;;20.27;11.48;;;3.60;99.90;;;;;;5065447;28;20038;-78
2023/12/07 04:28:05;;;;;;;28.47;13.23;;;3.50;99.90;;;;;;5048893;28;20497;-78
2023/12/07 04:30:31;;;;;;;27.27;12.37;;;3.50;99.90;;;;;;5045685;28;20021;-78
2023/12/07 04:32:56;;;;;;;27.27;12.33;;;3.40;99.90;;;;;;5047228;28;20400;-77
2023/12/07 04:35:22;;;;;;;24.57;13.17;;;3.40;99.90;;;;;;5047165;28;20017;-78
2023/12/07 04:37:48;;;;;;;22.83;12.07;;;3.30;99.90;;;;;;5047180;28;20051;-77
2023/12/07 04:40:14;;;;;;;21.88;11.00;;;3.30;99.90;;;;;;5047348;28;20283;-78
2023/12/07 04:42:40;;;;;;;29.63;14.07;;;3.30;99.90;;;;;;5046835;28;20045;-78
2023/12/07 04:45:06;;;;;;;28.35;13.00;;;3.40;99.90;;;;;;5046755;28;20032;-77
2023/12/07 04:47:33;;;;;;;22.50;12.57;;;3.50;99.90;;;;;;5046740;28;20045;-78
2023/12/07 04:49:58;;;;;;;35.28;13.40;;;3.40;99.90;;;;;;5046836;28;20086;-78
2023/12/07 04:52:24;;;;;;;26.87;13.17;;;3.30;99.90;;;;;;5046993;28;20432;-78
2023/12/07 04:54:50;;;;;;;27.10;13.07;;;3.30;99.90;;;;;;5047061;28;20260;-77
2023/12/07 04:57:16;;;;;;;26.60;14.07;;;3.30;99.90;;;;;;5047385;28;20466;-78
2023/12/07 04:59:46;;;;;;;29.55;13.85;;;3.40;99.90;;;;;;5046986;28;20026;-78
2023/12/07 05:02:15;;;;;;;26.23;13.43;;;3.40;99.90;;;;;;5046930;28;20083;-78
2023/12/07 05:04:40;;;;;;;27.25;13.65;;;3.40;99.90;;;;;;5046550;28;20023;-78
2023/12/07 05:07:06;;;;;;;26.37;13.80;;;3.40;99.90;;;;;;5043291;28;20119;-78
2023/12/07 05:09:32;;;;;;;26.25;14.57;;;3.40;99.90;;;;;;5034243;28;20061;-77
2023/12/07 05:11:58;;;;;;;28.40;13.43;;;3.40;99.90;;;;;;5027397;28;20072;-78
2023/12/07 05:14:23;;;;;;;26.33;13.23;;;3.40;99.90;;;;;;5033469;28;20519;-78
2023/12/07 05:16:52;;;;;;;27.50;13.43;;;3.40;99.90;;;;;;5050278;28;20107;-77
2023/12/07 05:19:20;;;;;;;27.73;13.85;;;3.40;99.90;;;;;;5050415;28;20040;-77
2023/12/07 05:21:46;;;;;;;26.85;13.55;;;3.30;99.90;;;;;;5046129;28;20551;-78
2023/12/07 05:24:12;;;;;;;30.42;14.98;;;3.40;99.90;;;;;;5042055;28;20083;-77
2023/12/07 05:26:40;;;;;;;35.13;14.43;;;3.30;99.90;;;;;;5044409;28;20041;-77
2023/12/07 05:29:06;;;;;;;33.33;14.60;;;3.30;99.90;;;;;;5050105;28;20120;-78
2023/12/07 05:31:31;;;;;;;29.13;15.07;;;3.30;99.90;;;;;;5030848;28;20532;-77
2023/12/07 05:33:57;;;;;;;27.77;13.60;;;3.30;99.90;;;;;;5029959;28;20037;-77
2023/12/07 05:36:23;;;;;;;36.13;15.25;;;3.30;99.90;;;;;;5031376;28;20072;-77
2023/12/07 05:38:48;;;;;;;31.03;15.00;;;3.20;99.90;;;;;;5049608;28;20382;-77
2023/12/07 05:41:14;;;;;;;39.10;14.85;;;3.20;99.90;;;;;;5050562;28;20029;-77
2023/12/07 05:43:43;;;;;;;29.00;15.97;;;3.20;99.90;;;;;;5052548;28;20094;-77
2023/12/07 05:46:08;;;;;;;38.28;15.02;;;3.20;99.90;;;;;;5050698;28;20037;-78
2023/12/07 05:48:34;;;;;;;29.87;14.97;;;3.20;99.90;;;;;;5050204;28;20477;-78
2023/12/07 05:51:01;;;;;;;32.25;15.73;;;3.20;99.90;;;;;;5049941;28;20512;-78
2023/12/07 05:53:27;;;;;;;38.08;14.60;;;3.10;99.90;;;;;;5048357;28;20711;-78
2023/12/07 05:55:52;;;;;;;30.23;14.80;;;3.10;99.90;;;;;;5044127;28;20029;-78
2023/12/07 05:58:18;;;;;;;34.43;15.93;;;3.20;99.90;;;;;;5033692;28;20033;-77
2023/12/07 06:00:46;;;;;;;36.17;16.53;;;3.10;99.90;;;;;;5046699;28;20060;-77
2023/12/07 06:03:15;;;;;;;31.15;15.13;;;3.20;99.90;;;;;;5038647;28;20021;-77
2023/12/07 06:05:41;;;;;;;33.50;15.55;;;3.20;99.90;;;;;;5045791;28;20032;-77
2023/12/07 06:08:07;;;;;;;34.17;15.43;;;3.10;99.90;;;;;;5042708;28;20045;-77
2023/12/07 06:10:33;;;;;;;37.47;16.65;;;3.00;99.90;;;;;;5043006;28;20382;-77
2023/12/07 06:13:00;;;;;;;40.53;15.52;;;3.00;99.90;;;;;;5046321;28;20028;-77
2023/12/07 06:15:27;;;;;;;30.58;14.95;;;3.00;99.90;;;;;;5045828;28;20033;-77
2023/12/07 06:17:54;;;;;;;;;;;2.90;99.90;;;;;;5043025;28;20033;-77
2023/12/07 06:20:20;;;;;;;33.53;15.63;;;2.90;99.90;;;;;;5070405;28;19912;-78
2023/12/07 06:22:45;;;;;;;32.78;15.32;;;2.90;99.90;;;;;;5045291;28;20024;-78
2023/12/07 06:25:11;;;;;;;33.53;14.83;;;2.90;99.90;;;;;;5043811;28;20163;-78
2023/12/07 06:27:37;;;;;;;37.55;15.15;;;2.90;99.90;;;;;;5038937;28;21063;-78
2023/12/07 06:30:07;;;;;;;35.30;15.68;;;3.00;99.90;;;;;;5038496;28;20036;-77
2023/12/07 06:32:33;;;;;;;31.42;14.93;;;3.00;99.90;;;;;;5048397;28;20022;-78
2023/12/07 06:34:59;;;;;;;34.10;15.18;;;2.80;99.90;;;;;;5045563;28;20036;-76
2023/12/07 06:37:25;;;;;;;48.22;16.05;;;2.80;99.90;;;;;;5057212;28;20487;-77
2023/12/07 06:39:50;;;;;;;31.23;14.63;;;2.80;99.90;;;;;;5048207;28;20796;-77
2023/12/07 06:42:16;;;;;;;38.07;16.50;;;2.70;99.90;;;;;;5034695;28;20087;-76
2023/12/07 06:44:49;;;;;;;36.63;15.90;;;2.70;99.90;;;;;;5043032;28;20040;-78
2023/12/07 06:47:15;;;;;;;35.92;15.02;;;2.60;99.90;;;;;;5042359;28;20048;-77
2023/12/07 06:49:40;;;;;;;35.85;16.48;;;2.70;99.90;;;;;;5061106;28;20709;-79
2023/12/07 06:52:06;;;;;;;30.95;15.02;;;2.80;99.90;;;;;;5040675;28;20034;-79
2023/12/07 06:54:32;;;;;;;35.35;14.93;;;2.80;99.90;;;;;;5048776;28;20036;-79
2023/12/07 06:56:58;;;;;;;30.27;13.90;;;2.70;99.90;;;;;;5036670;28;20040;-79
2023/12/07 06:59:24;;;;;;;33.40;14.57;;;2.70;99.90;;;;;;5038543;28;20017;-78
2023/12/07 07:01:49;;;;;;;30.70;14.43;;;2.70;99.90;;;;;;5041654;28;20726;-77
2023/12/07 07:04:16;;;;;;;32.77;15.13;;;2.70;99.90;;;;;;5039027;28;20794;-78
2023/12/07 07:06:42;;;;;;;30.23;14.05;;;2.70;99.90;;;;;;5036749;28;20048;-79
2023/12/07 07:09:08;;;;;;;29.02;14.57;;;2.80;99.90;;;;;;5047639;28;20064;-79
2023/12/07 07:11:34;;;;;;;30.63;14.43;;;2.80;99.90;;;;;;5041024;28;20032;-79
2023/12/07 07:14:00;;;;;;;27.88;13.45;;;2.60;99.90;;;;;;5035832;28;20029;-80
2023/12/07 07:16:25;;;;;;;31.25;13.65;;;2.60;99.90;;;;;;5036422;28;20098;-78
2023/12/07 07:18:51;;;;;;;32.97;13.93;;;2.60;99.90;;;;;;5036277;28;20061;-78
2023/12/07 07:21:16;;;;;;;32.17;15.37;;;2.50;99.90;;;;;;5038080;28;20047;-78
2023/12/07 07:23:42;;;;;;;35.60;14.27;;;2.40;99.90;;;;;;5039606;28;20067;-79
2023/12/07 07:26:08;;;;;;;28.30;13.40;;;2.30;99.90;;;;;;5039736;28;20044;-78
2023/12/07 07:28:34;;;;;;;32.63;14.73;;;2.30;99.90;;;;;;5036699;28;20040;-75
2023/12/07 07:31:00;;;;;;;33.70;14.60;;;2.20;99.90;;;;;;5034922;28;20374;-78
2023/12/07 07:33:26;;;;;;;43.92;16.20;;;2.40;99.90;;;;;;5040451;28;20060;-77
2023/12/07 07:35:51;;;;;;;38.90;15.33;;;2.50;99.90;;;;;;5038470;28;20029;-78
2023/12/07 07:38:17;;;;;;;43.23;16.47;;;2.50;99.90;;;;;;5036815;28;20485;-79
2023/12/07 07:40:45;;;;;;;35.50;16.37;;;2.40;99.90;;;;;;5036687;28;20037;-80
2023/12/07 07:43:10;;;;;;;38.20;15.75;;;2.50;99.90;;;;;;5042651;28;20804;-76
2023/12/07 07:45:36;;;;;;;40.75;17.48;;;2.60;99.90;;;;;;5030858;28;20037;-80
2023/12/07 07:48:02;;;;;;;40.70;16.73;;;2.50;99.90;;;;;;5041805;28;20037;-80
2023/12/07 07:50:28;;;;;;;37.20;15.97;;;2.60;99.90;;;;;;5073849;28;20314;-79
2023/12/07 07:52:54;;;;;;;;;;;2.50;99.90;;;;;;5049097;28;20029;-80
2023/12/07 07:55:20;;;;;;;42.08;16.23;;;2.50;99.90;;;;;;5039034;28;19908;-78
2023/12/07 07:57:45;;;;;;;37.40;15.87;;;2.40;99.90;;;;;;5038165;28;20087;-83
2023/12/07 08:00:12;;;;;;;39.70;15.83;;;2.30;99.90;;;;;;5036964;28;20021;-81
2023/12/07 08:02:38;;;;;;;35.78;16.92;;;2.40;99.90;;;;;;5032886;28;20026;-82
2023/12/07 08:05:04;;;;;;;33.90;15.07;;;2.40;99.90;;;;;;5034291;28;20124;-81
2023/12/07 08:07:30;;;;;;;33.65;14.68;;;2.50;99.90;;;;;;5034747;28;20029;-82
2023/12/07 08:09:56;;;;;;;34.87;15.57;;;2.40;99.90;;;;;;5036411;28;20033;-81
2023/12/07 08:12:23;;;;;;;41.03;16.88;;;2.40;99.90;;;;;;5034744;28;20120;-78
2023/12/07 08:14:49;;;;;;;39.20;16.65;;;2.40;99.90;;;;;;5037285;28;20025;-78
2023/12/07 08:17:15;;;;;;;35.95;15.93;;;2.30;99.90;;;;;;5042608;28;20464;-78
2023/12/07 08:19:44;;;;;;;34.92;15.48;;;2.60;99.90;;;;;;5031512;28;20053;-78
2023/12/07 08:22:10;;;;;;;41.55;17.05;;;2.40;99.90;;;;;;5038095;28;20053;-74
2023/12/07 08:24:37;;;;;;;40.00;15.40;;;2.40;99.90;;;;;;5034282;28;20024;-73
2023/12/07 08:27:03;;;;;;;37.80;16.45;;;2.30;99.90;;;;;;5031179;28;20045;-75
2023/12/07 08:29:29;;;;;;;;;;;2.30;99.90;;;;;;5044753;28;20022;-80
2023/12/07 08:31:54;;;;;;;36.42;15.00;;;2.50;99.90;;;;;;5036979;28;19927;-81
2023/12/07 08:34:20;;;;;;;35.10;15.55;;;2.60;99.90;;;;;;5033074;28;20030;-80
2023/12/07 08:36:45;;;;;;;31.20;14.87;;;2.90;99.90;;;;;;5035781;28;20032;-82
2023/12/07 08:39:11;;;;;;;33.83;15.93;;;2.80;99.90;;;;;;5034702;28;20116;-79
2023/12/07 08:41:37;;;;;;;36.23;15.90;;;3.00;99.90;;;;;;5030771;28;20022;-81
2023/12/07 08:44:03;;;;;;;34.80;15.07;;;3.00;99.90;;;;;;5035523;28;20338;-78
2023/12/07 08:46:29;;;;;;;37.00;15.73;;;3.20;99.90;;;;;;5030225;28;20044;-79
2023/12/07 08:48:56;;;;;;;34.13;16.80;;;3.30;99.90;;;;;;5037396;28;20033;-79
2023/12/07 08:51:21;;;;;;;37.63;16.20;;;3.30;99.90;;;;;;5039267;28;20393;-80
2023/12/07 08:53:47;;;;;;;39.55;16.50;;;3.30;99.90;;;;;;5045233;28;20037;-81
2023/12/07 08:56:13;;;;;;;37.03;15.50;;;3.50;99.90;;;;;;5040932;28;20033;-80
2023/12/07 08:58:39;;;;;;;34.90;15.70;;;3.60;99.90;;;;;;5032450;28;20107;-79
2023/12/07 09:01:07;;;;;;;36.08;16.10;;;3.50;99.90;;;;;;5038235;28;20435;-79
2023/12/07 09:03:33;;;;;;;42.25;16.52;;;3.50;99.90;;;;;;5040607;28;20033;-79
2023/12/07 09:06:00;;;;;;;32.85;15.23;;;3.50;99.90;;;;;;5039809;28;20135;-81
2023/12/07 09:08:25;;;;;;;27.75;13.30;;;3.50;99.90;;;;;;5039751;28;20124;-82
2023/12/07 09:10:51;;;;;;;36.63;15.63;;;3.40;99.90;;;;;;5041427;28;20523;-81
2023/12/07 09:13:18;;;;;;;37.90;15.68;;;3.20;99.90;;;;;;5039302;28;20060;-82
2023/12/07 09:15:43;;;;;;;34.72;16.27;;;3.30;99.90;;;;;;5033321;28;20040;-81
2023/12/07 09:18:10;;;;;;;31.42;14.98;;;3.40;99.90;;;;;;5039916;28;20017;-78
2023/12/07 09:20:37;;;;;;;36.28;15.90;;;3.40;99.90;;;;;;5037392;28;20075;-77
2023/12/07 09:23:03;;;;;;;31.00;14.40;;;3.20;99.90;;;;;;5048418;28;20052;-81
2023/12/07 09:25:30;;;;;;;32.75;14.52;;;3.40;99.90;;;;;;5026240;28;20087;-77
2023/12/07 09:27:56;;;;;;;;;;;3.40;99.90;;;;;;5032342;28;20037;-79
2023/12/07 09:30:22;;;;;;;25.08;11.55;;;3.40;99.90;;;;;;5037187;28;19912;-79
2023/12/07 09:32:47;;;;;;;26.92;12.75;;;3.40;99.90;;;;;;5038892;28;20562;-78
2023/12/07 09:35:20;;;;;;;27.50;13.23;;;3.20;99.90;;;;;;5039347;28;20041;-76
2023/12/07 09:37:46;;;;;;;29.67;14.40;;;3.20;99.90;;;;;;5023914;28;20029;-79
2023/12/07 09:40:22;;;;;;;27.13;13.40;;;3.10;99.90;;;;;;5037997;28;20771;-79
2023/12/07 09:42:49;;;;;;;27.73;13.43;;;3.30;99.90;;;;;;5041936;28;20041;-79
2023/12/07 09:45:18;;;;;;;26.95;13.00;;;3.40;99.90;;;;;;5036244;28;20496;-78
2023/12/07 09:47:46;;;;;;;30.70;14.48;;;3.40;99.90;;;;;;5034538;28;20095;-79
2023/12/07 09:50:13;;;;;;;26.23;13.20;;;3.20;99.90;;;;;;5035737;28;20044;-78
2023/12/07 09:52:40;;;;;;;26.42;12.05;;;3.30;99.90;;;;;;5037257;28;20029;-81
2023/12/07 09:55:06;;;;;;;25.02;12.40;;;3.50;99.90;;;;;;5036529;28;20036;-78
2023/12/07 09:57:33;;;;;;;23.38;12.45;;;3.60;99.90;;;;;;5038819;28;20101;-77
2023/12/07 09:59:59;;;;;;;23.95;12.00;;;3.70;99.90;;;;;;5043135;28;20030;-78
2023/12/07 10:02:25;;;;;;;24.30;12.73;;;3.80;99.90;;;;;;5038743;28;20059;-78
2023/12/07 10:05:07;;;;;;;27.63;11.57;;;3.90;99.90;;;;;;5039745;28;20021;-77
2023/12/07 10:07:37;;;;;;;25.92;11.93;;;3.80;99.90;;;;;;5038372;28;20041;-78
2023/12/07 10:10:04;;;;;;;21.95;10.93;;;4.00;99.90;;;;;;5035563;28;20029;-78
2023/12/07 10:12:34;;;;;;;22.08;11.55;;;4.10;99.90;;;;;;5035297;28;20033;-78
2023/12/07 10:15:03;;;;;;;21.08;11.43;;;4.20;99.90;;;;;;5049011;28;20112;-77
2023/12/07 10:17:47;;;;;;;18.52;9.75;;;4.30;99.90;;;;;;5048727;28;20036;-78
2023/12/07 10:20:16;;;;;;;26.15;9.95;;;4.60;99.90;;;;;;5048237;28;20041;-78
2023/12/07 10:22:41;;;;;;;20.80;8.60;;;4.70;99.90;;;;;;5050752;28;20036;-78
2023/12/07 10:25:09;;;;;;;18.27;8.40;;;4.70;99.90;;;;;;5068977;28;20202;-78
2023/12/07 10:27:35;;;;;;;14.20;7.82;;;4.90;99.90;;;;;;5067550;28;20032;-79
2023/12/07 10:30:01;;;;;;;18.33;8.15;;;4.90;99.90;;;;;;5067439;28;20025;-78
2023/12/07 10:32:26;;;;;;;17.57;7.67;;;5.00;99.90;;;;;;5068242;28;20517;-77
2023/12/07 10:34:53;;;;;;;16.17;7.27;;;5.10;99.90;;;;;;5068569;28;20263;-77
2023/12/07 10:37:18;;;;;;;;;;;5.20;99.90;;;;;;5065541;28;20035;-77
2023/12/07 10:39:44;;;;;;;15.07;6.97;;;5.40;99.90;;;;;;5068222;28;19939;-78
2023/12/07 10:42:13;;;;;;;12.03;5.87;;;5.60;99.90;;;;;;5067930;28;20036;-79
2023/12/07 10:44:42;;;;;;;10.07;5.72;;;5.80;99.90;;;;;;5068272;28;20031;-78
2023/12/07 10:47:10;;;;;;;14.13;4.90;;;5.90;99.90;;;;;;5066858;28;20051;-77
2023/12/07 10:49:42;;;;;;;9.05;4.30;;;6.10;99.90;;;;;;5067932;28;20039;-78
2023/12/07 10:52:13;;;;;;;8.82;3.60;;;6.10;98.50;;;;;;5067490;28;20025;-78
2023/12/07 10:55:03;;;;;;;9.73;3.58;;;6.10;96.10;;;;;;5067891;28;20550;-78
2023/12/07 10:57:33;;;;;;;6.60;3.72;;;6.10;96.10;;;;;;5063020;28;20036;-77
2023/12/07 11:00:00;;;;;;;6.15;2.80;;;6.10;94.80;;;;;;5067668;28;20454;-78
2023/12/07 11:02:28;;;;;;;4.85;2.92;;;6.30;94.10;;;;;;5068302;28;20752;-77
2023/12/07 11:04:58;;;;;;;6.60;3.60;;;6.30;94.70;;;;;;5067600;28;20024;-77
2023/12/07 11:07:27;;;;;;;9.43;2.95;;;6.40;94.70;;;;;;5068770;28;20179;-79
2023/12/07 11:10:02;;;;;;;6.38;3.17;;;6.50;93.90;;;;;;5067214;28;20024;-79
2023/12/07 11:12:47;;;;;;;10.27;2.90;;;6.50;92.40;;;;;;5053744;28;20035;-79
2023/12/07 11:15:14;;;;;;;4.55;2.30;;;6.60;93.70;;;;;;5048260;28;20087;-77
2023/12/07 11:17:55;;;;;;;4.95;2.67;;;6.60;92.00;;;;;;5048120;28;20583;-78
2023/12/07 11:20:33;;;;;;;6.43;2.90;;;6.60;92.00;;;;;;5047469;28;20405;-78
2023/12/07 11:22:59;;;;;;;7.93;2.90;;;6.50;90.60;;;;;;5052740;28;20495;-77
2023/12/07 11:25:25;;;;;;;8.48;2.80;;;6.50;91.40;;;;;;5067851;28;20032;-77
2023/12/07 11:28:01;;;;;;;9.30;3.17;;;6.60;91.00;;;;;;5065546;28;20534;-77
2023/12/07 11:30:27;;;;;;;5.88;2.92;;;6.60;90.80;;;;;;5067251;28;20093;-77
2023/12/07 11:32:54;;;;;;;4.75;2.50;;;6.50;90.50;;;;;;5067480;28;20039;-78
2023/12/07 11:35:20;;;;;;;;;;;6.50;90.30;;;;;;5067884;28;20027;-77
2023/12/07 11:38:08;;;;;;;5.00;2.67;;;6.60;90.60;;;;;;5068143;28;19948;-77
2023/12/07 11:40:51;;;;;;;;;;;6.70;89.60;;;;;;5067658;28;20055;-77
2023/12/07 11:43:30;;;;;;;5.65;2.17;;;6.70;91.20;;;;;;5067940;28;19921;-79
2023/12/07 11:45:55;;;;;;;6.07;2.63;;;6.80;88.90;;;;;;5047723;28;20029;-77
2023/12/07 11:48:22;;;;;;;4.33;2.00;;;6.70;85.40;;;;;;5047096;28;20037;-77
2023/12/07 11:51:00;;;;;;;3.72;1.98;;;6.60;87.40;;;;;;5047994;28;20086;-77
2023/12/07 11:53:31;;;;;;;4.47;2.10;;;6.60;86.30;;;;;;5047633;28;20032;-77
2023/12/07 11:56:01;;;;;;;5.88;2.50;;;6.60;84.00;;;;;;5047086;28;20029;-77
2023/12/07 11:58:30;;;;;;;4.65;2.33;;;6.60;87.40;;;;;;5047441;28;20069;-76
2023/12/07 12:00:56;;;;;;;4.07;2.45;;;6.60;84.60;;;;;;5047619;28;20032;-77
2023/12/07 12:03:22;;;;;;;4.40;2.15;;;6.60;85.60;;;;;;5047385;28;20025;-76
2023/12/07 12:05:48;;;;;;;5.38;1.98;;;6.60;85.00;;;;;;5047267;28;20037;-77
2023/12/07 12:08:14;;;;;;;3.10;2.10;;;6.60;86.00;;;;;;5047910;28;20045;-77
2023/12/07 12:10:42;;;;;;;7.40;2.40;;;6.50;85.10;;;;;;5046159;28;20028;-77
2023/12/07 12:13:08;;;;;;;5.65;1.88;;;6.50;87.70;;;;;;5047537;28;20115;-77
2023/12/07 12:15:34;;;;;;;4.20;2.45;;;6.50;88.20;;;;;;5047360;28;20082;-77
2023/12/07 12:18:00;;;;;;;5.72;2.95;;;6.70;90.10;;;;;;5046163;28;20496;-77
2023/12/07 12:20:27;;;;;;;3.67;2.47;;;6.70;86.20;;;;;;5047886;28;20021;-77
2023/12/07 12:22:53;;;;;;;;;;;6.70;86.90;;;;;;5055790;28;20120;-76
2023/12/07 12:25:22;;;;;;;4.38;2.28;;;6.70;87.40;;;;;;5070569;28;19908;-77
2023/12/07 12:27:49;;;;;;;4.43;3.05;;;6.80;86.90;;;;;;5070891;28;20032;-77
2023/12/07 12:30:16;;;;;;;8.90;3.42;;;6.80;85.80;;;;;;5070205;28;20058;-76
2023/12/07 12:32:46;;;;;;;5.25;2.85;;;6.90;87.30;;;;;;5071384;28;20025;-77
2023/12/07 12:35:14;;;;;;;8.43;3.95;;;7.10;89.50;;;;;;5070014;28;20456;-77
2023/12/07 12:37:42;;;;;;;9.27;3.78;;;7.10;85.70;;;;;;5070964;28;20024;-77
2023/12/07 12:40:09;;;;;;;7.53;3.65;;;7.10;88.00;;;;;;5071020;28;20083;-76
2023/12/07 12:42:37;;;;;;;5.35;2.88;;;7.10;85.20;;;;;;5071571;28;20052;-77